Aeroporto :
LOGIN :

Iscrizione | Disclaimer

   EN    FR    IT 

 










Sommario :    VFR   VFR Marginale   IFR   IFR Intensivo   IFR Molto Intensivo
Visibilità : 
Base nubi : 
>= 8 km
>= 3000ft
5 / 8 km
1000 / 3000 ft
1500m / 5 km
500 / 1000 ft
800 / 1500m
200 / 500 ft
< 800m
< 200 ft
Simboli :   Temporali  Nebbia  Neve Forte  Precipitazioni Forti  Vento > 20 kt
SIGMETs :   Varie  Temporali  Ghiacco  Turbolenza  Onda orograficha  Ceneri Vulcaniche






- Altitudine del aeroporto : 36 ft
- Codice IATA : LTQ


LFAT - Le Touquet

ULTIMO METAR :
  • 231900Z AUTO 23008KT 180V260 9999 FEW022 SCT130 BKN240 07/03 Q0991

METARs OBSOLETI :
  • 231830Z AUTO 23010KT 200V260 9999 BKN021 BKN026 BKN150 07/03 Q0990
  • 231800Z AUTO 24012KT 210V270 9999 SCT024/// BKN033/// BKN043/// ///TCU 07/03 Q0990 TEMPO 21015G25KT 4000 SHRA BKN012 BKN020CB
  • 231730Z AUTO 25007KT 170V320 9999 -RA BKN022/// OVC034/// ///TCU 07/03 Q0990 TEMPO 21015G25KT 4000 SHRA BKN012 BKN020CB
  • 231700Z AUTO 22009KT 170V260 9999 BKN022/// BKN039/// BKN086/// ///CB 07/04 Q0990 TEMPO 21015G25KT 4000 SHRA BKN012 BKN020CB
  • 231630Z AUTO 21010KT 180V240 9999 BKN022/// OVC032/// ///TCU 08/04 Q0990 TEMPO 21015G25KT 4000 SHRA BKN012 BKN020CB
  • 231600Z AUTO 24012KT 210V270 9999 BKN022/// BKN028/// BKN045/// ///TCU 08/04 Q0990 TEMPO 21015G25KT 4000 SHRA BKN012 BKN020CB
  • 231530Z AUTO 22012KT 190V270 9999 BKN021/// BKN026/// BKN033/// ///CB 08/03 Q0990 TEMPO 21015G25KT 4000 SHRA BKN012 BKN020CB
  • 231500Z AUTO 22013KT 9999 SCT017/// BKN040/// BKN046/// ///CB 08/04 Q0990 TEMPO 21015G25KT 4000 SHRA BKN012 BKN020CB
  • 231430Z AUTO 22015G25KT 180V260 9999 SCT022/// BKN038/// BKN044/// ///CB 07/04 Q0990 TEMPO 4000 SHRA BKN012 BKN020CB

TAF TAF LFAT
Valido dal 23 a 15 ore il 24 a 00 ore UTC


231400Z 2315/2324 21008KT 9999 BKN020
TEMPO 2315/2324 21015G25KT 4000 SHRA BKN012 BKN020CB
ATIS : +33 3 21 06 62 84



MetMap, La meteo Aeronautica in un colpo d'occhio ! - Copyright ORBIFLY Dicembre 2007 - Disclaimer

ORBIFLY MET'MAP TEAM :

Programmazione e sviluppo : Alexandra Zaïnal
Concezione : Baudouin d'Aumeries
Supporto tecnico e logistico : Manuel Goepfert
Aiuto : Marc-Olivier Méhu
Aiuto per la traduzione : Arnaldo La Scala




FONTI E CREDITI :

   NOAA